createdAt,value
2018-10-18T00:00:24.691Z,8.10
2018-10-18T00:02:54.814Z,8.20
2018-10-18T00:05:24.965Z,8.20
2018-10-18T00:10:24.618Z,8.10
2018-10-18T00:12:54.787Z,8.20
2018-10-18T00:15:24.881Z,8.10
2018-10-18T00:17:54.975Z,8.10
2018-10-18T00:20:25.127Z,8.10
2018-10-18T00:22:55.243Z,8.10
2018-10-18T00:25:25.376Z,8.20
2018-10-18T00:27:55.481Z,8.20
2018-10-18T00:30:25.603Z,8.10
2018-10-18T00:32:55.637Z,8.00
2018-10-18T00:35:25.675Z,8.00
2018-10-18T00:37:55.761Z,8.00
2018-10-18T00:40:25.865Z,8.10
2018-10-18T00:42:55.927Z,8.00
2018-10-18T00:45:26.064Z,8.00
2018-10-18T00:47:56.305Z,8.10
2018-10-18T00:50:26.457Z,8.20
2018-10-18T00:52:56.577Z,8.20
2018-10-18T00:55:26.656Z,8.20
2018-10-18T00:57:56.754Z,8.10
2018-10-18T01:05:25.755Z,7.80
2018-10-18T01:07:55.868Z,7.70
2018-10-18T01:10:25.964Z,7.70
2018-10-18T01:12:56.063Z,7.70
2018-10-18T01:15:26.444Z,7.60
2018-10-18T01:17:56.556Z,7.50
2018-10-18T01:20:26.671Z,7.50
2018-10-18T01:22:56.704Z,7.40
2018-10-18T01:25:26.811Z,7.40
2018-10-18T01:27:57.073Z,7.40
2018-10-18T01:30:27.159Z,7.50
2018-10-18T01:32:57.233Z,7.70
2018-10-18T01:35:27.520Z,7.60
2018-10-18T01:37:57.666Z,7.40
2018-10-18T01:40:27.853Z,7.50
2018-10-18T01:45:27.770Z,7.70
2018-10-18T01:47:57.853Z,7.70
2018-10-18T01:50:27.955Z,7.70
2018-10-18T01:52:58.060Z,7.80
2018-10-18T01:55:28.155Z,7.80
2018-10-18T01:57:58.224Z,7.80
2018-10-18T02:00:28.377Z,7.60
2018-10-18T02:02:58.579Z,7.50
2018-10-18T02:05:28.671Z,7.40
2018-10-18T02:07:59.093Z,7.40
2018-10-18T02:10:29.227Z,7.50
2018-10-18T02:12:59.463Z,7.50
2018-10-18T02:15:29.511Z,7.50
2018-10-18T02:17:59.669Z,7.60
2018-10-18T02:20:29.831Z,7.60
2018-10-18T02:22:59.912Z,7.50
2018-10-18T02:25:30.000Z,7.50
2018-10-18T02:32:58.944Z,7.60
2018-10-18T02:35:28.977Z,7.60
2018-10-18T02:37:59.087Z,7.50
2018-10-18T02:40:29.242Z,7.50
2018-10-18T02:42:59.331Z,7.50
2018-10-18T02:45:29.526Z,7.60
2018-10-18T02:50:29.167Z,7.40
2018-10-18T02:52:59.673Z,7.30
2018-10-18T02:57:59.473Z,7.20
2018-10-18T03:00:29.934Z,7.20
2018-10-18T03:03:00.035Z,7.30
2018-10-18T03:05:30.161Z,7.30
2018-10-18T03:08:00.592Z,7.10
2018-10-18T03:13:00.135Z,6.70
2018-10-18T03:15:30.212Z,6.60
2018-10-18T03:18:00.350Z,6.60
2018-10-18T03:22:59.889Z,6.50
2018-10-18T03:25:29.924Z,6.40
2018-10-18T03:28:00.056Z,6.50
2018-10-18T03:30:30.135Z,6.70
2018-10-18T03:35:29.677Z,6.70
2018-10-18T03:37:59.791Z,6.70
2018-10-18T03:40:29.896Z,6.90
2018-10-18T03:45:29.415Z,6.80
2018-10-18T03:47:59.583Z,6.70
2018-10-18T03:50:29.655Z,6.60
2018-10-18T03:55:29.200Z,6.60
2018-10-18T03:57:59.272Z,6.60
2018-10-18T04:01:32.339Z,6.60
2018-10-18T04:04:02.447Z,6.60
2018-10-18T04:06:32.524Z,6.60
2018-10-18T04:11:32.323Z,6.60
2018-10-18T04:14:02.444Z,6.60
2018-10-18T04:16:32.620Z,6.60
2018-10-18T04:19:03.110Z,6.60
2018-10-18T04:21:33.180Z,6.50
2018-10-18T04:24:03.294Z,6.40
2018-10-18T04:26:33.404Z,6.30
2018-10-18T04:29:03.857Z,6.20
2018-10-18T04:31:33.855Z,6.00
2018-10-18T04:34:03.947Z,6.00
2018-10-18T04:36:34.249Z,6.00
2018-10-18T04:39:05.292Z,6.10
2018-10-18T04:41:35.827Z,6.20
2018-10-18T04:49:05.112Z,6.40
2018-10-18T04:51:35.565Z,6.40
2018-10-18T04:54:05.768Z,6.40
2018-10-18T04:56:36.087Z,6.40
2018-10-18T05:00:30.653Z,6.30
2018-10-18T05:03:00.985Z,6.30
2018-10-18T05:05:41.857Z,6.40
2018-10-18T05:08:11.944Z,6.40
2018-10-18T05:13:11.745Z,6.20
2018-10-18T05:15:42.127Z,6.20
2018-10-18T05:18:12.503Z,6.10
2018-10-18T05:20:42.972Z,6.20
2018-10-18T05:23:13.275Z,6.10
2018-10-18T05:28:13.716Z,6.10
2018-10-18T05:33:13.931Z,5.80
2018-10-18T05:35:44.405Z,5.70
2018-10-18T05:38:14.805Z,5.70
2018-10-18T05:43:15.231Z,5.60
2018-10-18T05:45:45.829Z,5.60
2018-10-18T05:48:16.203Z,5.60
2018-10-18T05:50:46.516Z,5.60
2018-10-18T05:53:16.905Z,5.70
2018-10-18T05:55:47.573Z,5.70
2018-10-18T05:58:17.944Z,5.70
2018-10-18T06:00:48.455Z,5.70
2018-10-18T06:03:18.647Z,5.70
2018-10-18T06:05:49.208Z,5.80
2018-10-18T06:08:19.815Z,5.90
2018-10-18T06:11:00.927Z,6.00
2018-10-18T06:13:31.236Z,6.00
2018-10-18T06:16:01.765Z,5.90
2018-10-18T06:18:32.167Z,5.90
2018-10-18T06:21:02.736Z,6.10
2018-10-18T06:23:33.081Z,6.20
2018-10-18T06:26:03.591Z,6.30
2018-10-18T06:28:34.086Z,6.30
2018-10-18T06:36:03.717Z,6.50
2018-10-18T06:41:03.806Z,6.70
2018-10-18T06:43:38.416Z,6.80
2018-10-18T06:46:11.931Z,7.00
2018-10-18T06:48:42.774Z,7.20
2018-10-18T06:51:13.124Z,7.40
2018-10-18T06:53:43.806Z,7.50
2018-10-18T06:56:14.243Z,7.60
2018-10-18T06:58:44.737Z,7.70
2018-10-18T07:06:14.446Z,8.30
2018-10-18T07:08:44.777Z,8.40
2018-10-18T07:11:15.400Z,8.50
2018-10-18T07:13:45.682Z,8.60
2018-10-18T07:16:16.067Z,8.60
2018-10-18T07:18:46.536Z,8.60
2018-10-18T07:21:16.881Z,8.60
2018-10-18T07:23:47.192Z,8.50
2018-10-18T07:26:17.666Z,8.40
2018-10-18T07:28:47.978Z,8.40
2018-10-18T07:31:18.295Z,8.30
2018-10-18T07:33:48.752Z,8.30
2018-10-18T07:38:48.673Z,8.30
2018-10-18T07:41:19.156Z,8.30
2018-10-18T07:43:49.528Z,8.30
2018-10-18T07:48:49.559Z,8.40
2018-10-18T07:51:20.152Z,8.40
2018-10-18T07:53:50.764Z,8.50
2018-10-18T07:56:21.008Z,8.50
2018-10-18T07:58:51.315Z,8.60
2018-10-18T08:01:21.735Z,8.80
2018-10-18T08:03:52.112Z,9.00
2018-10-18T08:06:22.385Z,9.30
2018-10-18T08:08:52.755Z,9.60
2018-10-18T08:11:22.989Z,9.80
2018-10-18T08:16:23.009Z,10.20
2018-10-18T08:18:53.322Z,10.30
2018-10-18T08:21:23.755Z,10.40
2018-10-18T08:23:54.130Z,10.60
2018-10-18T08:26:24.475Z,10.70
2018-10-18T08:28:55.036Z,10.90
2018-10-18T08:31:25.382Z,11.00
2018-10-18T08:33:55.601Z,10.90
2018-10-18T08:38:55.690Z,10.60
2018-10-18T08:41:25.933Z,10.60
2018-10-18T08:43:58.687Z,10.60
2018-10-18T08:46:29.345Z,10.90
2018-10-18T08:48:59.691Z,11.20
2018-10-18T08:53:59.758Z,11.70
2018-10-18T08:56:30.004Z,11.70
2018-10-18T08:59:00.310Z,11.70
2018-10-18T09:01:30.620Z,11.70
2018-10-18T09:04:00.901Z,11.80
2018-10-18T09:06:31.529Z,12.20
2018-10-18T09:09:01.868Z,12.50
2018-10-18T09:11:32.199Z,12.80
2018-10-18T09:14:02.402Z,13.10
2018-10-18T09:16:33.027Z,13.50
2018-10-18T09:19:03.472Z,13.70
2018-10-18T09:24:03.287Z,14.40
2018-10-18T09:26:33.736Z,14.70
2018-10-18T09:31:33.803Z,14.80
2018-10-18T09:34:04.149Z,14.90
2018-10-18T09:36:34.416Z,14.90
2018-10-18T09:41:35.702Z,14.60
2018-10-18T09:44:06.863Z,14.70
2018-10-18T09:46:37.634Z,15.10
2018-10-18T09:49:08.075Z,15.30
2018-10-18T09:51:38.506Z,15.30
2018-10-18T10:01:42.399Z,16.20
2018-10-18T10:04:12.767Z,16.50
2018-10-18T10:06:43.164Z,16.60
2018-10-18T10:09:13.524Z,16.70
2018-10-18T10:11:44.023Z,16.40
2018-10-18T10:14:14.263Z,15.80
2018-10-18T10:16:44.560Z,15.70
2018-10-18T10:19:14.987Z,15.70
2018-10-18T10:21:45.348Z,15.90
2018-10-18T10:24:15.929Z,16.10
2018-10-18T10:26:46.254Z,16.20
2018-10-18T10:29:16.643Z,16.60
2018-10-18T10:34:16.678Z,17.30
2018-10-18T10:39:16.676Z,17.80
2018-10-18T10:41:46.907Z,17.90
2018-10-18T10:44:17.442Z,17.70
2018-10-18T10:46:47.663Z,17.50
2018-10-18T10:49:18.233Z,17.50
2018-10-18T10:51:48.616Z,17.80
2018-10-18T10:54:19.121Z,18.30
2018-10-18T10:59:20.103Z,18.90
2018-10-18T11:01:50.396Z,18.90
2018-10-18T11:04:20.668Z,19.10
2018-10-18T11:06:50.972Z,19.10
2018-10-18T11:09:21.158Z,19.20
2018-10-18T11:11:51.167Z,19.30
2018-10-18T11:14:21.208Z,19.60
2018-10-18T11:16:51.712Z,19.60
2018-10-18T11:19:21.776Z,19.30
2018-10-18T11:21:52.144Z,19.30
2018-10-18T11:24:22.202Z,19.60
2018-10-18T11:26:52.254Z,19.60
2018-10-18T11:31:51.655Z,19.80
2018-10-18T11:34:21.973Z,19.80
2018-10-18T11:39:21.470Z,19.60
2018-10-18T11:41:52.601Z,19.70
2018-10-18T11:44:27.772Z,19.90
2018-10-18T11:46:57.827Z,19.90
2018-10-18T11:51:57.651Z,19.80
2018-10-18T11:54:27.679Z,19.70
2018-10-18T11:59:27.605Z,19.70
2018-10-18T12:01:57.682Z,19.70
2018-10-18T12:04:27.996Z,20.00
2018-10-18T12:06:58.069Z,20.50
2018-10-18T12:09:28.072Z,20.30
2018-10-18T12:14:27.441Z,20.50
2018-10-18T12:16:57.471Z,20.70
2018-10-18T12:19:27.564Z,20.70
2018-10-18T12:21:57.636Z,20.70
2018-10-18T12:24:27.708Z,20.60
2018-10-18T12:26:57.843Z,20.70
2018-10-18T12:29:28.009Z,20.90
2018-10-18T12:31:58.097Z,21.30
2018-10-18T12:34:28.201Z,21.30
2018-10-18T12:36:58.210Z,21.40
2018-10-18T12:39:28.323Z,21.80
2018-10-18T12:41:58.435Z,21.90
2018-10-18T12:44:32.608Z,22.00
2018-10-18T12:49:31.976Z,21.90
2018-10-18T12:52:02.032Z,21.70
2018-10-18T12:54:32.122Z,21.70
2018-10-18T12:57:02.219Z,21.50
2018-10-18T12:59:32.244Z,21.40
2018-10-18T13:02:02.387Z,21.60
2018-10-18T13:12:01.573Z,22.00
2018-10-18T13:14:31.884Z,22.30
2018-10-18T13:17:01.911Z,22.50
2018-10-18T13:19:32.267Z,22.50
2018-10-18T13:22:02.296Z,22.30
2018-10-18T13:24:32.418Z,22.30
2018-10-18T13:27:02.458Z,22.30
2018-10-18T13:29:32.524Z,22.40
2018-10-18T13:32:02.610Z,22.50
2018-10-18T13:37:02.033Z,22.40
2018-10-18T13:42:01.481Z,21.80
2018-10-18T13:44:31.529Z,22.00
2018-10-18T13:47:01.661Z,22.10
2018-10-18T13:49:31.661Z,22.00
2018-10-18T13:52:01.744Z,22.30
2018-10-18T13:54:31.759Z,22.80
2018-10-18T13:59:41.923Z,23.00
2018-10-18T14:02:12.033Z,22.50
2018-10-18T14:04:42.069Z,22.10
2018-10-18T14:07:12.429Z,22.00
2018-10-18T14:09:42.790Z,22.00
2018-10-18T14:12:13.228Z,21.60
2018-10-18T14:17:13.588Z,21.50
2018-10-18T14:19:43.541Z,21.50
2018-10-18T14:22:13.615Z,21.70
2018-10-18T14:24:43.998Z,21.50
2018-10-18T14:29:43.477Z,21.20
2018-10-18T14:32:13.575Z,20.90
2018-10-18T14:34:43.616Z,20.70
2018-10-18T14:37:13.692Z,20.70
2018-10-18T14:39:43.706Z,20.70
2018-10-18T14:42:14.033Z,20.60
2018-10-18T14:44:44.343Z,20.50
2018-10-18T14:47:14.655Z,20.40
2018-10-18T14:49:44.609Z,20.30
2018-10-18T14:52:14.751Z,20.20
2018-10-18T14:54:45.107Z,20.10
2018-10-18T14:57:15.852Z,20.00
2018-10-18T14:59:45.976Z,20.00
2018-10-18T15:02:16.129Z,19.90
2018-10-18T15:07:15.467Z,19.80
2018-10-18T15:09:45.995Z,19.80
2018-10-18T15:12:16.037Z,19.70
2018-10-18T15:14:47.076Z,19.50
2018-10-18T15:17:17.241Z,19.40
2018-10-18T15:19:47.191Z,19.20
2018-10-18T15:22:17.617Z,19.00
2018-10-18T15:24:47.864Z,18.80
2018-10-18T15:27:18.203Z,18.60
2018-10-18T15:29:48.343Z,18.40
2018-10-18T15:32:18.432Z,18.30
2018-10-18T15:34:48.504Z,17.90
2018-10-18T15:37:18.567Z,17.60
2018-10-18T15:39:48.618Z,17.40
2018-10-18T15:44:48.299Z,16.90
2018-10-18T15:47:18.389Z,16.70
2018-10-18T15:49:48.395Z,16.50
2018-10-18T15:54:47.751Z,16.10
2018-10-18T15:57:17.946Z,15.90
2018-10-18T15:59:48.756Z,15.80
2018-10-18T16:02:18.807Z,15.60
2018-10-18T16:04:49.765Z,15.40
2018-10-18T16:07:19.867Z,15.20
2018-10-18T16:09:50.828Z,14.90
2018-10-18T16:12:24.829Z,14.70
2018-10-18T16:15:00.274Z,14.50
2018-10-18T16:17:30.385Z,14.30
2018-10-18T16:20:00.463Z,14.10
2018-10-18T16:27:41.117Z,13.60
2018-10-18T16:30:11.242Z,13.40
2018-10-18T16:32:41.303Z,13.30
2018-10-18T16:35:11.408Z,13.10
2018-10-18T16:37:41.432Z,12.90
2018-10-18T16:42:51.637Z,12.90
2018-10-18T16:45:23.654Z,13.10
2018-10-18T16:47:54.847Z,13.20
2018-10-18T16:52:59.486Z,13.40
2018-10-18T16:55:29.537Z,13.50
2018-10-18T17:00:45.407Z,13.50
2018-10-18T17:03:15.475Z,13.40
2018-10-18T17:05:45.506Z,13.10
2018-10-18T17:10:55.300Z,12.50
2018-10-18T17:13:25.602Z,12.40
2018-10-18T17:18:37.442Z,12.50
2018-10-18T17:26:18.713Z,12.80
2018-10-18T17:31:31.225Z,12.80
2018-10-18T17:34:01.670Z,12.70
2018-10-18T17:36:42.488Z,12.50
2018-10-18T17:39:13.519Z,12.40
2018-10-18T17:41:45.563Z,12.40
2018-10-18T17:44:16.202Z,12.50
2018-10-18T17:49:18.571Z,12.30
2018-10-18T17:51:49.389Z,12.20
2018-10-18T17:57:05.305Z,11.70
2018-10-18T18:02:16.690Z,11.30
2018-10-18T18:04:49.908Z,11.40
2018-10-18T18:07:25.274Z,11.60
2018-10-18T18:09:55.619Z,11.70
2018-10-18T18:12:26.436Z,11.80
2018-10-18T18:14:57.581Z,11.70
2018-10-18T18:17:28.549Z,11.70
2018-10-18T18:20:00.478Z,11.50
2018-10-18T18:25:14.276Z,11.50
2018-10-18T18:27:44.309Z,11.60
2018-10-18T18:30:15.572Z,11.70
2018-10-18T18:35:26.384Z,11.80
2018-10-18T18:37:56.426Z,11.80
2018-10-18T18:40:28.551Z,11.70
2018-10-18T18:42:59.511Z,11.80
2018-10-18T18:45:35.324Z,11.90
2018-10-18T18:50:50.395Z,12.30
2018-10-18T18:53:20.415Z,12.50
2018-10-18T18:55:50.521Z,12.50
2018-10-18T18:58:20.594Z,12.50
2018-10-18T19:00:51.541Z,12.50
2018-10-18T19:03:21.601Z,12.50
2018-10-18T19:05:52.624Z,12.50
2018-10-18T19:08:22.645Z,12.40
2018-10-18T19:10:53.495Z,12.30
2018-10-18T19:16:06.485Z,12.20
2018-10-18T19:18:36.605Z,12.10
2018-10-18T19:21:08.613Z,12.10
2018-10-18T19:23:41.730Z,12.00
2018-10-18T19:28:41.476Z,11.90
2018-10-18T19:31:11.540Z,11.80
2018-10-18T19:33:41.636Z,11.80
2018-10-18T19:36:11.721Z,11.80
2018-10-18T19:41:26.534Z,11.80
2018-10-18T19:44:00.767Z,11.80
2018-10-18T19:46:32.672Z,11.90
2018-10-18T19:51:44.456Z,12.10
2018-10-18T19:54:14.501Z,12.20
2018-10-18T19:56:44.592Z,12.40
2018-10-18T19:59:14.624Z,12.50
2018-10-18T20:04:19.634Z,12.70
2018-10-18T20:06:49.736Z,12.80
2018-10-18T20:09:19.731Z,12.70
2018-10-18T20:11:49.816Z,12.70
2018-10-18T20:16:59.621Z,12.60
2018-10-18T20:19:29.800Z,12.50
2018-10-18T20:22:01.313Z,12.50
2018-10-18T20:24:31.507Z,12.60
2018-10-18T20:27:01.646Z,12.70
2018-10-18T20:29:31.655Z,12.80
2018-10-18T20:32:01.785Z,12.80
2018-10-18T20:34:31.876Z,12.70
2018-10-18T20:37:02.167Z,12.70
2018-10-18T20:39:32.490Z,12.70
2018-10-18T20:42:02.689Z,12.70
2018-10-18T20:44:32.785Z,12.70
2018-10-18T20:47:03.427Z,12.70
2018-10-18T20:49:33.816Z,12.70
2018-10-18T20:52:04.022Z,12.70
2018-10-18T20:54:34.144Z,12.70
2018-10-18T20:59:33.834Z,12.80
2018-10-18T21:02:03.994Z,12.80
2018-10-18T21:04:34.146Z,12.90
2018-10-18T21:07:04.406Z,12.80
2018-10-18T21:09:34.538Z,12.80
2018-10-18T21:12:05.348Z,12.70
2018-10-18T21:14:35.441Z,12.80
2018-10-18T21:17:05.793Z,12.80
2018-10-18T21:19:38.920Z,12.80
2018-10-18T21:22:09.172Z,12.70
2018-10-18T21:24:39.264Z,12.70
2018-10-18T21:29:41.137Z,12.60
2018-10-18T21:37:11.177Z,12.60
2018-10-18T21:39:41.893Z,12.60
2018-10-18T21:42:12.270Z,12.50
2018-10-18T21:44:42.956Z,12.40
2018-10-18T21:47:13.564Z,12.30
2018-10-18T21:49:43.929Z,12.30
2018-10-18T21:54:43.818Z,12.10
2018-10-18T21:57:14.373Z,12.10
2018-10-18T21:59:44.896Z,12.00
2018-10-18T22:02:15.370Z,12.00
2018-10-18T22:04:45.756Z,12.00
2018-10-18T22:07:16.232Z,12.00
2018-10-18T22:09:46.700Z,12.10
2018-10-18T22:12:17.255Z,12.10
2018-10-18T22:14:47.720Z,12.00
2018-10-18T22:17:17.995Z,12.00
2018-10-18T22:19:48.436Z,11.90
2018-10-18T22:22:18.955Z,11.80
2018-10-18T22:24:49.673Z,11.70
2018-10-18T22:27:20.051Z,11.70
2018-10-18T22:29:50.529Z,11.70
2018-10-18T22:32:21.008Z,11.70
2018-10-18T22:34:51.509Z,11.70
2018-10-18T22:39:51.642Z,11.80
2018-10-18T22:49:51.228Z,11.90
2018-10-18T22:52:21.727Z,12.00
2018-10-18T22:57:21.840Z,11.90
2018-10-18T22:59:52.184Z,11.80
2018-10-18T23:04:52.230Z,11.70
2018-10-18T23:07:22.615Z,11.50
2018-10-18T23:09:52.993Z,11.50
2018-10-18T23:12:23.400Z,11.20
2018-10-18T23:14:53.876Z,10.60
2018-10-18T23:17:24.321Z,9.80
2018-10-18T23:19:54.693Z,9.20
2018-10-18T23:22:25.096Z,8.90
2018-10-18T23:24:55.379Z,8.70
2018-10-18T23:27:27.791Z,8.70
2018-10-18T23:29:58.254Z,8.70
2018-10-18T23:32:28.619Z,8.60
2018-10-18T23:34:59.155Z,8.60
2018-10-18T23:37:29.603Z,8.50
2018-10-18T23:42:29.886Z,8.60
2018-10-18T23:45:00.623Z,8.70
2018-10-18T23:47:31.409Z,8.80
2018-10-18T23:52:31.810Z,9.50
2018-10-18T23:55:02.143Z,9.80
2018-10-18T23:57:32.721Z,10.10
